createdAt,value
2022-12-09T00:00:45.650Z,4.28
2022-12-09T00:02:48.761Z,4.33
2022-12-09T00:04:51.885Z,4.31
2022-12-09T00:06:54.934Z,4.31
2022-12-09T00:08:59.689Z,4.28
2022-12-09T00:11:03.481Z,4.27
2022-12-09T00:13:06.434Z,4.28
2022-12-09T00:15:10.146Z,4.28
2022-12-09T00:17:13.439Z,4.25
2022-12-09T00:19:16.821Z,4.27
2022-12-09T00:21:22.167Z,4.25
2022-12-09T00:23:25.178Z,4.22
2022-12-09T00:25:29.753Z,4.24
2022-12-09T00:27:32.551Z,4.19
2022-12-09T00:29:36.058Z,4.21
2022-12-09T00:31:40.080Z,4.16
2022-12-09T00:33:43.433Z,4.13
2022-12-09T00:35:46.543Z,4.13
2022-12-09T00:37:49.525Z,4.13
2022-12-09T00:39:52.445Z,4.13
2022-12-09T00:41:56.742Z,4.09
2022-12-09T00:44:00.433Z,4.06
2022-12-09T00:46:03.494Z,4.04
2022-12-09T00:48:06.843Z,4.02
2022-12-09T00:50:10.963Z,3.97
2022-12-09T00:52:14.058Z,3.93
2022-12-09T00:54:16.981Z,3.92
2022-12-09T00:56:19.880Z,3.89
2022-12-09T00:58:24.450Z,3.87
2022-12-09T01:00:27.706Z,3.82
2022-12-09T01:02:30.705Z,3.83
2022-12-09T01:04:33.826Z,3.81
2022-12-09T01:06:36.765Z,3.78
2022-12-09T01:08:40.372Z,3.77
2022-12-09T01:10:44.783Z,3.72
2022-12-09T01:12:47.982Z,3.76
2022-12-09T01:14:52.400Z,3.79
2022-12-09T01:16:55.915Z,3.79
2022-12-09T01:19:00.544Z,3.79
2022-12-09T01:21:03.478Z,3.74
2022-12-09T01:23:06.501Z,3.71
2022-12-09T01:25:10.105Z,3.70
2022-12-09T01:27:13.146Z,3.66
2022-12-09T01:29:17.497Z,3.64
2022-12-09T01:31:23.564Z,3.59
2022-12-09T01:33:26.818Z,3.54
2022-12-09T01:35:31.029Z,3.50
2022-12-09T01:37:34.319Z,3.52
2022-12-09T01:39:37.931Z,3.45
2022-12-09T01:41:41.130Z,3.43
2022-12-09T01:43:45.280Z,3.38
2022-12-09T01:45:49.208Z,3.38
2022-12-09T01:47:58.039Z,3.36
2022-12-09T01:50:02.241Z,3.33
2022-12-09T01:52:10.982Z,3.35
2022-12-09T01:54:15.008Z,3.31
2022-12-09T01:56:23.586Z,3.31
2022-12-09T01:58:27.810Z,3.25
2022-12-09T02:00:30.951Z,3.23
2022-12-09T02:02:38.002Z,3.22
2022-12-09T02:04:46.101Z,3.20
2022-12-09T02:06:49.630Z,3.18
2022-12-09T02:08:56.362Z,3.17
2022-12-09T02:11:09.033Z,3.14
2022-12-09T02:13:26.396Z,3.11
2022-12-09T02:15:35.984Z,3.04
2022-12-09T02:17:42.036Z,3.00
2022-12-09T02:20:01.497Z,3.00
2022-12-09T02:22:05.218Z,2.94
2022-12-09T02:24:16.554Z,2.94
2022-12-09T02:26:28.377Z,2.95
2022-12-09T02:29:02.089Z,2.94
2022-12-09T02:31:23.290Z,2.94
2022-12-09T02:33:41.600Z,2.93
2022-12-09T02:35:54.499Z,2.94
2022-12-09T02:38:04.259Z,2.94
2022-12-09T02:40:13.143Z,2.92
2022-12-09T02:42:22.263Z,2.91
2022-12-09T02:44:26.800Z,2.92
2022-12-09T02:46:51.093Z,2.92
2022-12-09T02:48:57.902Z,2.91
2022-12-09T02:51:05.070Z,2.94
2022-12-09T02:53:12.519Z,2.92
2022-12-09T02:55:18.497Z,2.92
2022-12-09T02:57:25.318Z,2.91
2022-12-09T02:59:28.377Z,2.90
2022-12-09T03:01:37.806Z,2.91
2022-12-09T03:03:41.192Z,2.89
2022-12-09T03:05:52.042Z,2.87
2022-12-09T03:08:09.448Z,2.86
2022-12-09T03:10:18.913Z,2.84
2022-12-09T03:12:23.352Z,2.82
2022-12-09T03:14:30.888Z,2.76
2022-12-09T03:16:36.946Z,2.73
2022-12-09T03:18:46.015Z,2.71
2022-12-09T03:20:51.301Z,2.69
2022-12-09T03:22:55.956Z,2.70
2022-12-09T03:25:05.799Z,2.66
2022-12-09T03:27:12.764Z,2.67
2022-12-09T03:29:19.866Z,2.65
2022-12-09T03:31:26.345Z,2.63
2022-12-09T03:33:30.877Z,2.62
2022-12-09T03:35:36.903Z,2.61
2022-12-09T03:37:42.905Z,2.59
2022-12-09T03:39:47.620Z,2.59
2022-12-09T03:41:56.296Z,2.59
2022-12-09T03:44:02.836Z,2.60
2022-12-09T03:46:06.389Z,2.59
2022-12-09T03:48:10.932Z,2.58
2022-12-09T03:50:15.049Z,2.54
2022-12-09T03:52:22.354Z,2.53
2022-12-09T03:54:29.711Z,2.52
2022-12-09T03:56:37.307Z,2.50
2022-12-09T03:58:45.235Z,2.49
2022-12-09T04:00:49.153Z,2.49
2022-12-09T04:02:52.657Z,2.48
2022-12-09T04:04:56.161Z,2.46
2022-12-09T04:06:59.446Z,2.39
2022-12-09T04:09:03.210Z,2.32
2022-12-09T04:11:06.341Z,2.31
2022-12-09T04:13:09.237Z,2.32
2022-12-09T04:15:13.495Z,2.30
2022-12-09T04:17:17.165Z,2.26
2022-12-09T04:19:20.042Z,2.23
2022-12-09T04:21:23.395Z,2.22
2022-12-09T04:23:26.760Z,2.23
2022-12-09T04:25:29.752Z,2.22
2022-12-09T04:27:32.654Z,2.21
2022-12-09T04:29:35.738Z,2.22
2022-12-09T04:31:40.548Z,2.24
2022-12-09T04:33:45.048Z,2.18
2022-12-09T04:35:48.257Z,2.19
2022-12-09T04:37:51.081Z,2.14
2022-12-09T04:39:54.093Z,2.11
2022-12-09T04:41:57.008Z,2.13
2022-12-09T04:44:00.041Z,2.14
2022-12-09T04:46:04.676Z,2.15
2022-12-09T04:48:09.333Z,2.19
2022-12-09T04:50:13.621Z,2.24
2022-12-09T04:52:17.894Z,2.19
2022-12-09T04:54:21.031Z,2.21
2022-12-09T04:56:23.923Z,2.20
2022-12-09T04:58:26.779Z,2.23
2022-12-09T05:00:30.697Z,2.23
2022-12-09T05:02:34.077Z,2.25
2022-12-09T05:04:38.735Z,2.26
2022-12-09T05:06:41.783Z,2.34
2022-12-09T05:08:45.268Z,2.41
2022-12-09T05:10:50.010Z,2.50
2022-12-09T05:12:53.392Z,2.60
2022-12-09T05:14:56.405Z,2.59
2022-12-09T05:16:59.517Z,2.57
2022-12-09T05:19:02.557Z,2.60
2022-12-09T05:21:08.655Z,2.59
2022-12-09T05:23:11.520Z,2.56
2022-12-09T05:25:15.060Z,2.53
2022-12-09T05:27:18.429Z,2.52
2022-12-09T05:29:23.524Z,2.49
2022-12-09T05:31:26.864Z,2.48
2022-12-09T05:33:30.443Z,2.47
2022-12-09T05:35:38.331Z,2.46
2022-12-09T05:37:46.981Z,2.39
2022-12-09T05:39:49.877Z,2.36
2022-12-09T05:41:52.840Z,2.37
2022-12-09T05:43:56.054Z,2.39
2022-12-09T05:45:59.571Z,2.36
2022-12-09T05:48:02.567Z,2.35
2022-12-09T05:50:08.667Z,2.35
2022-12-09T05:52:14.523Z,2.55
2022-12-09T05:54:18.872Z,3.41
2022-12-09T05:56:24.332Z,3.60
2022-12-09T05:58:27.677Z,4.06
2022-12-09T06:00:31.428Z,4.36
2022-12-09T06:02:34.756Z,4.57
2022-12-09T06:04:38.395Z,4.31
2022-12-09T06:06:41.520Z,3.89
2022-12-09T06:08:45.952Z,3.54
2022-12-09T06:10:51.095Z,3.22
2022-12-09T06:12:55.438Z,2.96
2022-12-09T06:14:58.438Z,2.83
2022-12-09T06:17:01.903Z,2.69
2022-12-09T06:19:05.933Z,2.59
2022-12-09T06:21:10.849Z,2.53
2022-12-09T06:23:13.762Z,2.46
2022-12-09T06:25:16.857Z,2.39
2022-12-09T06:27:21.255Z,2.32
2022-12-09T06:29:24.160Z,2.24
2022-12-09T06:31:28.994Z,2.21
2022-12-09T06:35:55.610Z,2.13
2022-12-09T06:37:59.266Z,2.09
2022-12-09T06:40:02.585Z,2.12
2022-12-09T06:42:06.221Z,2.09
2022-12-09T06:44:12.792Z,2.09
2022-12-09T06:46:20.345Z,2.06
2022-12-09T06:48:23.671Z,2.04
2022-12-09T06:50:27.212Z,2.04
2022-12-09T06:52:30.592Z,2.03
2022-12-09T06:54:33.507Z,2.02
2022-12-09T06:56:36.837Z,1.99
2022-12-09T06:58:40.579Z,1.92
2022-12-09T07:00:45.206Z,1.88
2022-12-09T07:02:48.910Z,1.89
2022-12-09T07:04:54.299Z,1.91
2022-12-09T07:07:20.236Z,1.95
2022-12-09T07:09:23.777Z,1.85
2022-12-09T07:11:27.214Z,1.85
2022-12-09T07:13:30.713Z,1.89
2022-12-09T07:15:33.953Z,1.89
2022-12-09T07:17:38.564Z,1.95
2022-12-09T07:19:41.678Z,1.94
2022-12-09T07:21:44.961Z,1.92
2022-12-09T07:23:48.672Z,1.95
2022-12-09T07:25:57.828Z,1.90
2022-12-09T07:28:00.773Z,1.88
2022-12-09T07:30:04.138Z,1.89
2022-12-09T07:32:07.763Z,1.88
2022-12-09T07:34:12.737Z,1.86
2022-12-09T07:36:20.699Z,1.88
2022-12-09T07:38:25.073Z,1.90
2022-12-09T07:40:28.110Z,1.92
2022-12-09T07:42:31.281Z,1.93
2022-12-09T07:44:39.376Z,1.96
2022-12-09T07:46:42.284Z,1.99
2022-12-09T07:48:46.512Z,2.06
2022-12-09T07:50:50.841Z,2.10
2022-12-09T07:52:53.795Z,2.14
2022-12-09T07:54:59.354Z,2.15
2022-12-09T07:57:02.359Z,2.20
2022-12-09T07:59:08.457Z,2.26
2022-12-09T08:01:14.089Z,2.29
2022-12-09T08:03:17.168Z,2.35
2022-12-09T08:05:20.829Z,2.40
2022-12-09T08:07:25.707Z,2.44
2022-12-09T08:09:29.335Z,2.48
2022-12-09T08:11:34.169Z,2.49
2022-12-09T08:13:37.912Z,2.54
2022-12-09T08:15:40.837Z,2.59
2022-12-09T08:17:44.259Z,2.64
2022-12-09T08:19:48.719Z,2.63
2022-12-09T08:21:54.738Z,2.64
2022-12-09T08:24:01.701Z,2.63
2022-12-09T08:26:05.357Z,2.65
2022-12-09T08:28:08.667Z,2.70
2022-12-09T08:30:12.794Z,2.78
2022-12-09T08:32:18.779Z,2.88
2022-12-09T08:34:22.264Z,2.85
2022-12-09T08:36:27.378Z,2.84
2022-12-09T08:38:31.954Z,2.82
2022-12-09T08:40:37.475Z,2.76
2022-12-09T08:42:40.562Z,2.83
2022-12-09T08:44:43.570Z,2.87
2022-12-09T08:46:49.314Z,2.92
2022-12-09T08:48:52.922Z,2.88
2022-12-09T08:50:56.149Z,2.88
2022-12-09T08:52:59.691Z,2.84
2022-12-09T08:55:02.892Z,2.91
2022-12-09T08:57:07.094Z,2.96
2022-12-09T08:59:10.386Z,2.99
2022-12-09T09:01:17.286Z,3.03
2022-12-09T09:03:20.724Z,3.03
2022-12-09T09:05:23.939Z,3.05
2022-12-09T09:07:27.164Z,3.03
2022-12-09T09:09:30.637Z,3.14
2022-12-09T09:11:34.434Z,3.19
2022-12-09T09:13:39.236Z,3.24
2022-12-09T09:15:42.277Z,3.22
2022-12-09T09:17:51.281Z,3.23
2022-12-09T09:19:55.170Z,3.24
2022-12-09T09:21:58.546Z,3.24
2022-12-09T09:24:02.222Z,3.23
2022-12-09T09:26:05.776Z,3.21
2022-12-09T09:28:08.840Z,3.37
2022-12-09T09:30:13.612Z,3.38
2022-12-09T09:32:17.349Z,3.32
2022-12-09T09:34:20.849Z,3.26
2022-12-09T09:36:25.786Z,3.35
2022-12-09T09:38:29.538Z,3.16
2022-12-09T09:40:34.629Z,3.23
2022-12-09T09:42:46.534Z,3.28
2022-12-09T09:44:51.559Z,3.36
2022-12-09T09:46:57.751Z,3.43
2022-12-09T09:49:02.576Z,3.35
2022-12-09T09:51:11.785Z,3.44
2022-12-09T09:53:20.861Z,3.43
2022-12-09T09:55:32.453Z,3.48
2022-12-09T09:57:43.156Z,3.48
2022-12-09T10:00:08.422Z,3.47
2022-12-09T10:02:32.207Z,3.46
2022-12-09T10:04:45.280Z,3.48
2022-12-09T10:06:59.175Z,3.48
2022-12-09T10:09:15.150Z,3.54
2022-12-09T10:11:22.160Z,3.64
2022-12-09T10:13:42.263Z,3.71
2022-12-09T10:15:53.849Z,3.70
2022-12-09T10:18:06.293Z,3.65
2022-12-09T10:20:15.532Z,3.71
2022-12-09T10:22:22.204Z,3.87
2022-12-09T10:24:32.889Z,3.83
2022-12-09T10:26:40.051Z,3.83
2022-12-09T10:28:47.140Z,3.84
2022-12-09T10:30:51.147Z,3.88
2022-12-09T10:32:55.516Z,3.87
2022-12-09T10:35:00.735Z,3.91
2022-12-09T10:37:04.526Z,3.87
2022-12-09T10:39:07.484Z,3.88
2022-12-09T10:41:38.836Z,3.98
2022-12-09T10:43:42.519Z,4.18
2022-12-09T10:48:21.939Z,4.27
2022-12-09T10:50:31.717Z,4.09
2022-12-09T10:52:44.471Z,4.03
2022-12-09T10:54:49.608Z,4.00
2022-12-09T10:57:09.689Z,4.01
2022-12-09T10:59:20.336Z,4.03
2022-12-09T11:01:23.718Z,4.07
2022-12-09T11:03:29.678Z,3.99
2022-12-09T11:05:34.807Z,4.17
2022-12-09T11:07:38.580Z,4.17
2022-12-09T11:09:45.077Z,4.05
2022-12-09T11:11:51.223Z,4.05
2022-12-09T11:13:54.717Z,4.08
2022-12-09T11:16:01.578Z,4.08
2022-12-09T11:18:09.588Z,4.03
2022-12-09T11:20:22.570Z,3.99
2022-12-09T11:22:32.687Z,4.06
2022-12-09T11:24:36.975Z,4.19
2022-12-09T11:26:41.331Z,4.29
2022-12-09T11:28:44.721Z,4.30
2022-12-09T11:31:27.056Z,4.32
2022-12-09T11:33:26.368Z,4.47
2022-12-09T11:35:38.218Z,4.34
2022-12-09T11:37:42.607Z,4.37
2022-12-09T11:39:50.486Z,4.48
2022-12-09T11:42:17.644Z,4.50
2022-12-09T11:44:27.388Z,4.44
2022-12-09T11:46:33.167Z,4.55
2022-12-09T11:48:43.320Z,4.36
2022-12-09T11:50:51.267Z,4.34
2022-12-09T11:53:09.967Z,4.42
2022-12-09T11:55:20.847Z,4.43
2022-12-09T11:57:33.748Z,4.45
2022-12-09T11:59:42.934Z,4.55
2022-12-09T12:01:51.215Z,4.57
2022-12-09T12:03:57.732Z,4.58
2022-12-09T12:06:03.713Z,4.55
2022-12-09T12:08:19.386Z,4.55
2022-12-09T12:10:27.319Z,4.58
2022-12-09T12:12:40.063Z,4.51
2022-12-09T12:14:45.283Z,4.62
2022-12-09T12:16:55.447Z,4.75
2022-12-09T12:19:04.167Z,4.66
2022-12-09T12:21:35.227Z,4.62
2022-12-09T12:24:23.130Z,4.74
2022-12-09T12:26:32.942Z,4.72
2022-12-09T12:28:57.296Z,4.69
2022-12-09T12:31:15.426Z,4.67
2022-12-09T12:36:18.908Z,4.39
2022-12-09T12:38:32.029Z,4.48
2022-12-09T12:40:44.235Z,4.48
2022-12-09T12:43:18.303Z,4.52
2022-12-09T12:45:49.096Z,4.64
2022-12-09T12:48:02.902Z,4.52
2022-12-09T12:50:33.173Z,4.61
2022-12-09T12:52:55.953Z,4.65
2022-12-09T12:55:12.152Z,4.59
2022-12-09T12:57:23.840Z,4.60
2022-12-09T12:59:35.243Z,4.54
2022-12-09T13:01:47.552Z,4.49
2022-12-09T13:03:58.722Z,4.42
2022-12-09T13:06:02.923Z,4.44
2022-12-09T13:08:10.468Z,4.45
2022-12-09T13:10:20.321Z,4.50
2022-12-09T13:12:42.264Z,4.46
2022-12-09T13:14:52.505Z,4.45
2022-12-09T13:16:55.623Z,4.35
2022-12-09T13:19:06.378Z,4.39
2022-12-09T13:21:10.764Z,4.45
2022-12-09T13:23:23.332Z,4.35
2022-12-09T13:25:34.715Z,4.22
2022-12-09T13:27:45.405Z,4.28
2022-12-09T13:29:57.350Z,4.27
2022-12-09T13:32:07.911Z,4.24
2022-12-09T13:34:23.793Z,4.17
2022-12-09T13:36:37.361Z,4.27
2022-12-09T13:38:42.618Z,4.32
2022-12-09T13:40:45.724Z,4.27
2022-12-09T13:43:01.329Z,4.34
2022-12-09T13:45:07.471Z,4.22
2022-12-09T13:47:29.160Z,4.24
2022-12-09T13:49:32.378Z,4.17
2022-12-09T13:51:45.833Z,4.30
2022-12-09T13:53:53.656Z,4.28
2022-12-09T13:55:58.638Z,4.36
2022-12-09T13:58:15.002Z,4.28
2022-12-09T14:00:19.686Z,4.22
2022-12-09T14:02:29.658Z,4.23
2022-12-09T14:04:36.569Z,4.30
2022-12-09T14:06:48.723Z,4.31
2022-12-09T14:08:55.698Z,4.18
2022-12-09T14:10:59.258Z,4.18
2022-12-09T14:13:18.650Z,4.32
2022-12-09T14:15:39.410Z,4.19
2022-12-09T14:18:04.122Z,4.26
2022-12-09T14:20:20.256Z,4.15
2022-12-09T14:23:03.067Z,4.12
2022-12-09T14:25:49.659Z,4.24
2022-12-09T14:28:36.473Z,4.19
2022-12-09T14:30:50.344Z,4.22
2022-12-09T14:32:55.024Z,4.16
2022-12-09T14:35:08.499Z,4.22
2022-12-09T14:37:46.621Z,4.02
2022-12-09T14:39:54.551Z,4.01
2022-12-09T14:42:02.568Z,4.18
2022-12-09T14:44:23.156Z,4.35
2022-12-09T14:46:32.965Z,4.45
2022-12-09T14:48:39.328Z,4.33
2022-12-09T14:50:42.193Z,4.25
2022-12-09T14:52:53.597Z,4.23
2022-12-09T14:54:58.659Z,4.27
2022-12-09T14:57:03.124Z,4.19
2022-12-09T14:59:09.772Z,4.21
2022-12-09T15:01:12.500Z,4.21
2022-12-09T15:03:42.911Z,4.15
2022-12-09T15:05:54.825Z,4.17
2022-12-09T15:07:57.868Z,4.07
2022-12-09T15:10:02.906Z,4.00
2022-12-09T15:12:11.430Z,4.08
2022-12-09T15:14:28.231Z,4.08
2022-12-09T15:16:31.107Z,3.96
2022-12-09T15:18:36.729Z,4.02
2022-12-09T15:20:41.546Z,4.00
2022-12-09T15:22:52.831Z,3.91
2022-12-09T15:24:56.021Z,4.05
2022-12-09T15:27:01.347Z,3.98
2022-12-09T15:29:06.419Z,3.96
2022-12-09T15:31:19.071Z,3.98
2022-12-09T15:33:21.961Z,4.10
2022-12-09T15:35:27.064Z,4.21
2022-12-09T15:37:30.067Z,4.14
2022-12-09T15:39:39.092Z,4.07
2022-12-09T15:42:02.413Z,4.15
2022-12-09T15:44:09.127Z,4.13
2022-12-09T15:46:13.185Z,3.98
2022-12-09T15:48:22.028Z,4.14
2022-12-09T15:50:28.144Z,4.13
2022-12-09T15:52:35.877Z,4.00
2022-12-09T15:54:43.606Z,3.96
2022-12-09T15:56:52.568Z,3.93
2022-12-09T15:59:01.327Z,3.98
2022-12-09T16:01:04.614Z,4.03
2022-12-09T16:03:08.256Z,4.08
2022-12-09T16:05:13.020Z,4.05
2022-12-09T16:07:20.331Z,4.14
2022-12-09T16:09:23.729Z,4.08
2022-12-09T16:11:37.162Z,4.05
2022-12-09T16:13:57.943Z,4.04
2022-12-09T16:16:02.698Z,4.01
2022-12-09T16:18:06.061Z,3.96
2022-12-09T16:20:35.555Z,4.02
2022-12-09T16:22:40.332Z,4.06
2022-12-09T16:27:09.533Z,4.05
2022-12-09T16:29:22.795Z,4.05
2022-12-09T16:31:25.988Z,4.09
2022-12-09T16:33:31.705Z,4.05
2022-12-09T16:35:39.142Z,4.04
2022-12-09T16:37:44.419Z,4.03
2022-12-09T16:39:47.192Z,4.00
2022-12-09T16:42:00.692Z,4.04
2022-12-09T16:44:03.554Z,3.95
2022-12-09T16:46:34.376Z,3.95
2022-12-09T16:48:37.349Z,3.92
2022-12-09T16:50:47.151Z,3.94
2022-12-09T16:52:50.581Z,3.93
2022-12-09T16:54:53.417Z,3.95
2022-12-09T16:56:57.037Z,3.99
2022-12-09T16:59:00.173Z,4.07
2022-12-09T17:01:04.870Z,4.02
2022-12-09T17:03:14.313Z,3.84
2022-12-09T17:05:17.449Z,3.81
2022-12-09T17:07:22.773Z,3.80
2022-12-09T17:09:25.720Z,3.88
2022-12-09T17:11:29.089Z,3.83
2022-12-09T17:13:32.009Z,3.85
2022-12-09T17:15:34.811Z,3.92
2022-12-09T17:17:38.102Z,3.89
2022-12-09T17:19:41.727Z,3.87
2022-12-09T17:21:44.571Z,3.88
2022-12-09T17:23:49.240Z,3.91
2022-12-09T17:25:57.001Z,3.75
2022-12-09T17:28:02.190Z,3.79
2022-12-09T17:30:06.224Z,3.87
2022-12-09T17:32:09.175Z,3.78
2022-12-09T17:34:12.274Z,3.62
2022-12-09T17:36:16.617Z,3.69
2022-12-09T17:38:20.047Z,3.58
2022-12-09T17:40:24.440Z,3.61
2022-12-09T17:42:27.410Z,3.66
2022-12-09T17:44:30.261Z,3.65
2022-12-09T17:46:33.291Z,3.76
2022-12-09T17:48:41.940Z,3.73
2022-12-09T17:50:45.312Z,3.78
2022-12-09T17:52:48.149Z,3.79
2022-12-09T17:54:50.885Z,3.81
2022-12-09T17:56:55.072Z,3.75
2022-12-09T17:59:00.914Z,3.70
2022-12-09T18:01:04.582Z,3.74
2022-12-09T18:03:11.188Z,3.77
2022-12-09T18:05:17.260Z,3.72
2022-12-09T18:07:20.274Z,3.76
2022-12-09T18:09:23.445Z,3.90
2022-12-09T18:11:26.279Z,3.67
2022-12-09T18:13:30.437Z,3.59
2022-12-09T18:15:37.095Z,3.77
2022-12-09T18:17:40.054Z,3.75
2022-12-09T18:19:42.875Z,3.66
2022-12-09T18:21:46.129Z,3.72
2022-12-09T18:23:49.385Z,3.75
2022-12-09T18:25:52.116Z,3.70
2022-12-09T18:27:55.045Z,3.62
2022-12-09T18:29:59.284Z,3.53
2022-12-09T18:32:02.162Z,3.57
2022-12-09T18:34:05.317Z,3.54
2022-12-09T18:36:08.844Z,3.66
2022-12-09T18:38:12.987Z,3.60
2022-12-09T18:40:21.018Z,3.69
2022-12-09T18:42:23.808Z,3.57
2022-12-09T18:44:26.680Z,3.57
2022-12-09T18:46:33.712Z,3.64
2022-12-09T18:48:37.146Z,3.57
2022-12-09T18:50:39.995Z,3.52
2022-12-09T18:52:43.557Z,3.56
2022-12-09T18:54:47.661Z,3.63
2022-12-09T18:56:50.913Z,3.64
2022-12-09T18:59:09.737Z,3.74
2022-12-09T19:01:17.617Z,3.57
2022-12-09T19:03:21.756Z,3.57
2022-12-09T19:05:26.208Z,3.56
2022-12-09T19:07:32.325Z,3.62
2022-12-09T19:09:36.313Z,3.54
2022-12-09T19:11:40.702Z,3.52
2022-12-09T19:13:43.540Z,3.56
2022-12-09T19:15:46.374Z,3.48
2022-12-09T19:17:49.198Z,3.54
2022-12-09T19:19:53.320Z,3.57
2022-12-09T19:21:56.267Z,3.56
2022-12-09T19:24:00.406Z,3.46
2022-12-09T19:26:03.259Z,3.52
2022-12-09T19:28:06.351Z,3.51
2022-12-09T19:30:10.369Z,3.35
2022-12-09T19:32:36.528Z,3.42
2022-12-09T19:34:36.394Z,3.44
2022-12-09T19:36:41.034Z,3.36
2022-12-09T19:38:44.018Z,3.25
2022-12-09T19:40:46.865Z,3.38
2022-12-09T19:42:49.719Z,3.30
2022-12-09T19:45:01.406Z,3.30
2022-12-09T19:47:08.628Z,3.33
2022-12-09T19:49:14.027Z,3.38
2022-12-09T19:51:18.563Z,3.45
2022-12-09T19:53:22.783Z,3.40
2022-12-09T19:55:25.607Z,3.25
2022-12-09T19:57:28.446Z,3.35
2022-12-09T19:59:31.404Z,3.30
2022-12-09T20:01:36.008Z,3.37
2022-12-09T20:03:40.275Z,3.28
2022-12-09T20:05:49.694Z,3.29
2022-12-09T20:07:53.950Z,3.26
2022-12-09T20:09:58.153Z,3.27
2022-12-09T20:12:01.009Z,3.28
2022-12-09T20:14:07.442Z,3.27
2022-12-09T20:16:13.062Z,3.30
2022-12-09T20:18:15.938Z,3.43
2022-12-09T20:20:18.963Z,3.37
2022-12-09T20:22:21.721Z,3.36
2022-12-09T20:24:24.469Z,3.29
2022-12-09T20:26:30.742Z,3.21
2022-12-09T20:28:34.085Z,3.26
2022-12-09T20:30:36.929Z,3.29
2022-12-09T20:32:39.808Z,3.40
2022-12-09T20:34:42.674Z,3.43
2022-12-09T20:36:46.655Z,3.28
2022-12-09T20:38:51.097Z,3.40
2022-12-09T20:40:53.963Z,3.30
2022-12-09T20:42:58.798Z,3.13
2022-12-09T20:45:01.703Z,3.31
2022-12-09T20:47:04.753Z,3.12
2022-12-09T20:49:07.686Z,3.10
2022-12-09T20:51:13.926Z,3.17
2022-12-09T20:53:16.705Z,3.02
2022-12-09T20:55:20.519Z,3.06
2022-12-09T20:57:23.346Z,3.02
2022-12-09T20:59:27.614Z,3.08
2022-12-09T21:01:32.290Z,3.09
2022-12-09T21:03:35.262Z,3.13
2022-12-09T21:05:38.287Z,3.04
2022-12-09T21:07:41.172Z,3.10
2022-12-09T21:09:44.765Z,3.18
2022-12-09T21:11:48.319Z,3.10
2022-12-09T21:13:52.800Z,3.07
2022-12-09T21:16:03.694Z,3.13
2022-12-09T21:18:06.759Z,2.99
2022-12-09T21:20:10.997Z,2.97
2022-12-09T21:22:14.174Z,2.95
2022-12-09T21:24:17.816Z,2.98
2022-12-09T21:26:22.381Z,3.02
2022-12-09T21:28:27.079Z,2.92
2022-12-09T21:30:29.970Z,2.97
2022-12-09T21:32:34.333Z,2.93
2022-12-09T21:34:37.226Z,2.96
2022-12-09T21:36:42.553Z,2.89
2022-12-09T21:38:45.494Z,2.86
2022-12-09T21:40:49.204Z,2.81
2022-12-09T21:42:52.025Z,2.90
2022-12-09T21:44:55.469Z,2.88
2022-12-09T21:46:58.431Z,2.79
2022-12-09T21:49:05.193Z,2.81
2022-12-09T21:51:08.839Z,2.88
2022-12-09T21:53:12.108Z,2.86
2022-12-09T21:55:15.175Z,2.77
2022-12-09T21:57:18.119Z,2.93
2022-12-09T21:59:20.980Z,2.95
2022-12-09T22:01:26.946Z,2.88
2022-12-09T22:03:29.909Z,2.75
2022-12-09T22:05:34.698Z,2.81
2022-12-09T22:07:37.622Z,2.74
2022-12-09T22:09:40.492Z,2.69
2022-12-09T22:11:43.559Z,2.67
2022-12-09T22:13:47.057Z,2.69
2022-12-09T22:15:49.966Z,2.74
2022-12-09T22:17:52.870Z,2.85
2022-12-09T22:20:22.582Z,2.70
2022-12-09T22:22:20.262Z,2.65
2022-12-09T22:24:23.279Z,2.64
2022-12-09T22:26:26.879Z,2.73
2022-12-09T22:28:29.885Z,2.73
2022-12-09T22:30:32.757Z,2.70
2022-12-09T22:32:40.874Z,2.70
2022-12-09T22:34:44.920Z,2.70
2022-12-09T22:36:49.176Z,2.72
2022-12-09T22:38:54.541Z,2.76
2022-12-09T22:40:57.316Z,2.79
2022-12-09T22:43:00.162Z,2.73
2022-12-09T22:45:02.970Z,2.75
2022-12-09T22:47:07.570Z,2.73
2022-12-09T22:49:13.409Z,2.72
2022-12-09T22:51:18.756Z,2.73
2022-12-09T22:53:22.469Z,2.71
2022-12-09T22:55:26.645Z,2.64
2022-12-09T22:57:29.409Z,2.60
2022-12-09T22:59:32.211Z,2.72
2022-12-09T23:01:37.230Z,2.68
2022-12-09T23:03:40.712Z,2.71
2022-12-09T23:05:43.671Z,2.74
2022-12-09T23:07:46.928Z,2.69
2022-12-09T23:09:50.276Z,2.75
2022-12-09T23:11:54.649Z,2.77
2022-12-09T23:14:00.322Z,2.73
2022-12-09T23:16:05.336Z,2.78
2022-12-09T23:18:08.398Z,2.89
2022-12-09T23:20:12.293Z,2.86
2022-12-09T23:22:15.180Z,2.87
2022-12-09T23:24:24.735Z,2.92
2022-12-09T23:26:30.353Z,2.94
2022-12-09T23:28:36.948Z,2.89
2022-12-09T23:30:39.782Z,2.79
2022-12-09T23:32:42.650Z,3.02
2022-12-09T23:34:45.472Z,2.83
2022-12-09T23:36:48.542Z,2.89
2022-12-09T23:38:53.128Z,2.76
2022-12-09T23:40:55.876Z,2.68
2022-12-09T23:42:58.596Z,2.63
2022-12-09T23:45:02.738Z,2.73
2022-12-09T23:47:05.593Z,2.82
2022-12-09T23:49:08.911Z,2.78
2022-12-09T23:51:12.909Z,2.76
2022-12-09T23:53:15.746Z,2.74
2022-12-09T23:55:18.593Z,2.73
2022-12-09T23:57:21.418Z,2.70
2022-12-09T23:59:24.361Z,2.78
